createdAt,value
2022-12-29T00:01:35.000Z,8.43
2022-12-29T00:03:51.000Z,8.6
2022-12-29T00:06:17.000Z,10
2022-12-29T00:08:43.000Z,8.48
2022-12-29T00:11:09.000Z,7.4
2022-12-29T00:13:34.000Z,6.2
2022-12-29T00:16:00.000Z,5.8
2022-12-29T00:18:26.000Z,6.85
2022-12-29T00:20:51.000Z,9.33
2022-12-29T00:23:18.000Z,8.35
2022-12-29T00:25:44.000Z,6.97
2022-12-29T00:28:09.000Z,7.2
2022-12-29T00:30:34.000Z,6.8
2022-12-29T00:33:01.000Z,5.87
2022-12-29T00:35:26.000Z,8.35
2022-12-29T00:37:52.000Z,11.03
2022-12-29T00:40:22.000Z,8.1
2022-12-29T00:42:43.000Z,8.33
2022-12-29T00:45:09.000Z,6.87
2022-12-29T00:47:35.000Z,6.22
2022-12-29T00:50:01.000Z,7.8
2022-12-29T00:52:28.000Z,5.5
2022-12-29T00:54:52.000Z,4.27
2022-12-29T00:57:19.000Z,4.22
2022-12-29T00:59:48.000Z,3.6
2022-12-29T01:02:09.000Z,4.92
2022-12-29T01:04:36.000Z,3.4
2022-12-29T01:07:01.000Z,4.03
2022-12-29T01:09:28.000Z,3.57
2022-12-29T01:11:52.000Z,3.72
2022-12-29T01:14:20.000Z,3.52
2022-12-29T01:16:45.000Z,3.9
2022-12-29T01:19:10.000Z,5.08
2022-12-29T01:21:36.000Z,4.08
2022-12-29T01:24:01.000Z,5.6
2022-12-29T01:26:27.000Z,3.23
2022-12-29T01:28:53.000Z,3.97
2022-12-29T01:31:21.000Z,3.63
2022-12-29T01:33:45.000Z,3.73
2022-12-29T01:36:12.000Z,3.95
2022-12-29T01:38:37.000Z,4.3
2022-12-29T01:41:02.000Z,4.37
2022-12-29T01:43:28.000Z,5.33
2022-12-29T01:45:54.000Z,3.27
2022-12-29T01:48:19.000Z,3.7
2022-12-29T01:50:46.000Z,4.7
2022-12-29T01:53:11.000Z,2.6
2022-12-29T01:55:38.000Z,3.67
2022-12-29T01:58:02.000Z,3.87
2022-12-29T02:00:44.000Z,5.45
2022-12-29T02:02:54.000Z,5.53
2022-12-29T02:05:21.000Z,3.3
2022-12-29T02:07:46.000Z,4.3
2022-12-29T02:10:13.000Z,5.33
2022-12-29T02:12:37.000Z,6.75
2022-12-29T02:15:03.000Z,4.05
2022-12-29T02:17:30.000Z,3.85
2022-12-29T02:19:55.000Z,3
2022-12-29T02:22:22.000Z,4.55
2022-12-29T02:24:47.000Z,5.45
2022-12-29T02:27:14.000Z,3.1
2022-12-29T02:29:38.000Z,4.07
2022-12-29T02:32:05.000Z,5.83
2022-12-29T02:34:30.000Z,3.9
2022-12-29T02:36:57.000Z,5.1
2022-12-29T02:39:22.000Z,4.5
2022-12-29T02:41:48.000Z,3.7
2022-12-29T02:44:14.000Z,7.97
2022-12-29T02:46:40.000Z,3.6
2022-12-29T02:49:06.000Z,3.4
2022-12-29T02:51:30.000Z,4.8
2022-12-29T02:53:58.000Z,2.6
2022-12-29T02:56:23.000Z,3.5
2022-12-29T02:58:49.000Z,4.97
2022-12-29T03:01:19.000Z,4.62
2022-12-29T03:03:44.000Z,3.75
2022-12-29T03:06:08.000Z,4.03
2022-12-29T03:08:33.000Z,3.6
2022-12-29T03:10:58.000Z,5.12
2022-12-29T03:13:25.000Z,3.4
2022-12-29T03:15:51.000Z,7.05
2022-12-29T03:18:16.000Z,4.33
2022-12-29T03:20:43.000Z,5.03
2022-12-29T03:23:08.000Z,5.07
2022-12-29T03:25:33.000Z,3.92
2022-12-29T03:27:59.000Z,3.15
2022-12-29T03:30:30.000Z,17.62
2022-12-29T03:32:51.000Z,29.77
2022-12-29T03:35:16.000Z,19.52
2022-12-29T03:37:42.000Z,19.37
2022-12-29T03:40:12.000Z,11.33
2022-12-29T03:42:35.000Z,16.9
2022-12-29T03:45:00.000Z,14.83
2022-12-29T03:47:26.000Z,7.17
2022-12-29T03:49:51.000Z,8.67
2022-12-29T03:52:19.000Z,7.67
2022-12-29T03:54:44.000Z,8.58
2022-12-29T03:57:10.000Z,7.25
2022-12-29T03:59:39.000Z,7.55
2022-12-29T04:02:01.000Z,6.95
2022-12-29T04:04:27.000Z,7.95
2022-12-29T04:06:53.000Z,6.2
2022-12-29T04:09:19.000Z,6.25
2022-12-29T04:11:44.000Z,5.3
2022-12-29T04:14:12.000Z,24.27
2022-12-29T04:16:37.000Z,8.23
2022-12-29T04:19:02.000Z,10.13
2022-12-29T04:21:29.000Z,9.03
2022-12-29T04:23:54.000Z,6.17
2022-12-29T04:26:20.000Z,7.2
2022-12-29T04:28:46.000Z,4.5
2022-12-29T04:31:12.000Z,5.28
2022-12-29T04:33:36.000Z,3.87
2022-12-29T04:36:03.000Z,5.1
2022-12-29T04:38:29.000Z,5.8
2022-12-29T04:40:55.000Z,6.95
2022-12-29T04:43:21.000Z,4.3
2022-12-29T04:45:46.000Z,4.93
2022-12-29T04:48:12.000Z,5.5
2022-12-29T04:50:37.000Z,4.93
2022-12-29T04:53:04.000Z,4.72
2022-12-29T04:55:31.000Z,4.6
2022-12-29T04:57:56.000Z,3.45
2022-12-29T05:00:36.000Z,3.35
2022-12-29T05:02:48.000Z,4.97
2022-12-29T05:05:13.000Z,5.93
2022-12-29T05:07:40.000Z,6.78
2022-12-29T05:10:06.000Z,5.55
2022-12-29T05:12:31.000Z,6.08
2022-12-29T05:14:56.000Z,5.97
2022-12-29T05:17:24.000Z,6.4
2022-12-29T05:19:49.000Z,4.77
2022-12-29T05:22:13.000Z,5.2
2022-12-29T05:24:41.000Z,5.4
2022-12-29T05:27:06.000Z,4.9
2022-12-29T05:29:31.000Z,5.9
2022-12-29T05:31:57.000Z,4.92
2022-12-29T05:34:24.000Z,6.1
2022-12-29T05:36:49.000Z,6.33
2022-12-29T05:39:16.000Z,6.83
2022-12-29T05:41:41.000Z,5.85
2022-12-29T05:44:08.000Z,5.12
2022-12-29T05:46:34.000Z,6.35
2022-12-29T05:49:00.000Z,5.55
2022-12-29T05:51:25.000Z,6.5
2022-12-29T05:53:51.000Z,7.28
2022-12-29T05:56:16.000Z,4.05
2022-12-29T05:58:42.000Z,6.58
2022-12-29T06:01:37.000Z,5.12
2022-12-29T06:03:50.000Z,8.4
2022-12-29T06:05:59.000Z,6.47
2022-12-29T06:08:25.000Z,7.53
2022-12-29T06:10:51.000Z,5.33
2022-12-29T06:13:18.000Z,4.65
2022-12-29T06:15:43.000Z,5.03
2022-12-29T06:18:09.000Z,4.67
2022-12-29T06:20:34.000Z,3.4
2022-12-29T06:23:00.000Z,4.53
2022-12-29T06:25:27.000Z,5.33
2022-12-29T06:27:52.000Z,5.92
2022-12-29T06:30:21.000Z,5.58
2022-12-29T06:32:43.000Z,5.12
2022-12-29T06:35:11.000Z,6.35
2022-12-29T06:37:36.000Z,5.97
2022-12-29T06:40:01.000Z,4.3
2022-12-29T06:42:28.000Z,5.5
2022-12-29T06:44:55.000Z,5.72
2022-12-29T06:47:19.000Z,8.18
2022-12-29T06:49:45.000Z,12.9
2022-12-29T06:52:11.000Z,8.33
2022-12-29T06:54:37.000Z,8.23
2022-12-29T06:57:01.000Z,5.33
2022-12-29T06:59:33.000Z,6.2
2022-12-29T07:02:08.000Z,7.97
2022-12-29T07:04:20.000Z,7.1
2022-12-29T07:06:46.000Z,12.47
2022-12-29T07:09:14.000Z,11.28
2022-12-29T07:11:37.000Z,11.3
2022-12-29T07:14:03.000Z,6.97
2022-12-29T07:16:29.000Z,7.87
2022-12-29T07:18:54.000Z,5.6
2022-12-29T07:21:20.000Z,4.17
2022-12-29T07:23:45.000Z,5.9
2022-12-29T07:26:13.000Z,6.3
2022-12-29T07:28:38.000Z,5.47
2022-12-29T07:31:04.000Z,4.23
2022-12-29T07:33:30.000Z,7.83
2022-12-29T07:35:56.000Z,5.05
2022-12-29T07:38:21.000Z,7.6
2022-12-29T07:40:48.000Z,5.23
2022-12-29T07:43:14.000Z,9.3
2022-12-29T07:45:38.000Z,8.6
2022-12-29T07:48:05.000Z,6.1
2022-12-29T07:50:31.000Z,6.2
2022-12-29T07:52:56.000Z,6.5
2022-12-29T07:55:22.000Z,8.53
2022-12-29T07:57:48.000Z,8.2
2022-12-29T08:00:28.000Z,7.9
2022-12-29T08:02:40.000Z,7.75
2022-12-29T08:05:06.000Z,4.83
2022-12-29T08:07:37.000Z,4.85
2022-12-29T08:10:00.000Z,7.22
2022-12-29T08:12:24.000Z,7.22
2022-12-29T08:14:49.000Z,7.05
2022-12-29T08:17:15.000Z,7.03
2022-12-29T08:19:40.000Z,4.93
2022-12-29T08:22:06.000Z,6.3
2022-12-29T08:24:33.000Z,6.63
2022-12-29T08:26:58.000Z,5.65
2022-12-29T08:29:24.000Z,6.87
2022-12-29T08:31:49.000Z,6.58
2022-12-29T08:34:15.000Z,5.03
2022-12-29T08:36:41.000Z,6.25
2022-12-29T08:39:07.000Z,6.93
2022-12-29T08:41:31.000Z,7.1
2022-12-29T08:43:58.000Z,5.85
2022-12-29T08:46:23.000Z,6.3
2022-12-29T08:48:50.000Z,8.15
2022-12-29T08:51:15.000Z,5.83
2022-12-29T08:53:41.000Z,8.3
2022-12-29T08:56:09.000Z,7.97
2022-12-29T08:58:34.000Z,7
2022-12-29T09:01:00.000Z,5.72
2022-12-29T09:03:25.000Z,6.45
2022-12-29T09:05:50.000Z,5.87
2022-12-29T09:08:16.000Z,5.87
2022-12-29T09:10:42.000Z,7.12
2022-12-29T09:13:09.000Z,5.83
2022-12-29T09:15:34.000Z,5.33
2022-12-29T09:17:59.000Z,5.9
2022-12-29T09:20:25.000Z,8.98
2022-12-29T09:22:51.000Z,8.75
2022-12-29T09:25:17.000Z,7.87
2022-12-29T09:27:42.000Z,5.6
2022-12-29T09:30:12.000Z,9.6
2022-12-29T09:32:35.000Z,8.77
2022-12-29T09:34:59.000Z,6.9
2022-12-29T09:37:25.000Z,9.9
2022-12-29T09:39:51.000Z,7.03
2022-12-29T09:42:17.000Z,6.93
2022-12-29T09:44:42.000Z,7.53
2022-12-29T09:47:09.000Z,6.67
2022-12-29T09:49:35.000Z,8.75
2022-12-29T09:52:01.000Z,6.9
2022-12-29T09:54:27.000Z,7.62
2022-12-29T09:56:54.000Z,7.62
2022-12-29T09:59:22.000Z,9.2
2022-12-29T10:01:51.000Z,7.53
2022-12-29T10:04:12.000Z,6.7
2022-12-29T10:06:38.000Z,8.85
2022-12-29T10:09:04.000Z,7.08
2022-12-29T10:11:31.000Z,8.43
2022-12-29T10:13:56.000Z,9.23
2022-12-29T10:16:22.000Z,7.55
2022-12-29T10:18:47.000Z,8.63
2022-12-29T10:21:16.000Z,7.92
2022-12-29T10:23:41.000Z,8.5
2022-12-29T10:26:07.000Z,9.07
2022-12-29T10:28:32.000Z,9.4
2022-12-29T10:30:58.000Z,6.55
2022-12-29T10:33:24.000Z,7.2
2022-12-29T10:35:50.000Z,8.9
2022-12-29T10:38:19.000Z,10.08
2022-12-29T10:40:43.000Z,9.1
2022-12-29T10:43:10.000Z,9.48
2022-12-29T10:45:36.000Z,14.53
2022-12-29T10:48:03.000Z,12
2022-12-29T10:50:29.000Z,12.9
2022-12-29T10:52:55.000Z,14.28
2022-12-29T10:55:23.000Z,16.55
2022-12-29T10:57:49.000Z,13.35
2022-12-29T11:00:21.000Z,15.9
2022-12-29T11:02:41.000Z,17.4
2022-12-29T11:05:08.000Z,15.25
2022-12-29T11:07:34.000Z,16.87
2022-12-29T11:10:01.000Z,18.62
2022-12-29T11:12:27.000Z,20.65
2022-12-29T11:14:57.000Z,16.73
2022-12-29T11:17:21.000Z,18.9
2022-12-29T11:19:46.000Z,18.87
2022-12-29T11:22:13.000Z,20.33
2022-12-29T11:24:38.000Z,19.6
2022-12-29T11:27:02.000Z,21.75
2022-12-29T11:29:29.000Z,21.9
2022-12-29T11:31:55.000Z,24.17
2022-12-29T11:34:21.000Z,23.8
2022-12-29T11:36:47.000Z,20.55
2022-12-29T11:39:14.000Z,21.48
2022-12-29T11:41:39.000Z,26.15
2022-12-29T11:44:07.000Z,22.53
2022-12-29T11:46:35.000Z,21.33
2022-12-29T11:49:02.000Z,21.55
2022-12-29T11:51:28.000Z,23.05
2022-12-29T11:53:55.000Z,19.98
2022-12-29T11:56:23.000Z,20.6
2022-12-29T11:58:48.000Z,20.15
2022-12-29T12:01:37.000Z,18.8
2022-12-29T12:03:51.000Z,16.45
2022-12-29T12:06:09.000Z,17.92
2022-12-29T12:08:36.000Z,15.72
2022-12-29T12:11:01.000Z,16.57
2022-12-29T12:13:28.000Z,15.03
2022-12-29T12:15:55.000Z,13.32
2022-12-29T12:18:23.000Z,12.1
2022-12-29T12:20:51.000Z,11.03
2022-12-29T12:23:16.000Z,14.58
2022-12-29T12:25:44.000Z,12.93
2022-12-29T12:28:09.000Z,15.75
2022-12-29T12:30:37.000Z,17.77
2022-12-29T12:33:01.000Z,11.12
2022-12-29T12:35:27.000Z,11.22
2022-12-29T12:37:54.000Z,12.73
2022-12-29T12:40:25.000Z,14.28
2022-12-29T12:42:50.000Z,14.5
2022-12-29T12:45:13.000Z,15.7
2022-12-29T12:47:39.000Z,13.68
2022-12-29T12:50:05.000Z,12.1
2022-12-29T12:52:32.000Z,13.77
2022-12-29T12:54:58.000Z,14.4
2022-12-29T12:57:26.000Z,10.37
2022-12-29T13:00:02.000Z,10.55
2022-12-29T13:02:32.000Z,11.45
2022-12-29T13:04:46.000Z,10.07
2022-12-29T13:07:13.000Z,10.78
2022-12-29T13:09:40.000Z,11
2022-12-29T13:12:09.000Z,17.6
2022-12-29T13:14:35.000Z,10.57
2022-12-29T13:17:05.000Z,12.03
2022-12-29T13:19:33.000Z,10.35
2022-12-29T13:22:01.000Z,9.3
2022-12-29T13:24:28.000Z,9.25
2022-12-29T13:26:54.000Z,11.22
2022-12-29T13:29:21.000Z,10.48
2022-12-29T13:31:47.000Z,11.7
2022-12-29T13:34:14.000Z,8.88
2022-12-29T13:36:40.000Z,10.25
2022-12-29T13:39:06.000Z,8.75
2022-12-29T13:41:33.000Z,9.5
2022-12-29T13:44:01.000Z,10.9
2022-12-29T13:46:27.000Z,8.7
2022-12-29T13:48:52.000Z,13.83
2022-12-29T13:51:19.000Z,11.33
2022-12-29T13:53:46.000Z,10.35
2022-12-29T13:56:14.000Z,8.88
2022-12-29T13:58:39.000Z,11.55
2022-12-29T14:01:07.000Z,11.6
2022-12-29T14:03:35.000Z,11.33
2022-12-29T14:06:01.000Z,10.93
2022-12-29T14:08:28.000Z,9.65
2022-12-29T14:10:54.000Z,8.53
2022-12-29T14:13:21.000Z,10.78
2022-12-29T14:15:49.000Z,10.95
2022-12-29T14:18:17.000Z,12.1
2022-12-29T14:20:43.000Z,10.68
2022-12-29T14:23:08.000Z,10.1
2022-12-29T14:25:33.000Z,8.93
2022-12-29T14:28:00.000Z,8.58
2022-12-29T14:30:33.000Z,12.2
2022-12-29T14:32:52.000Z,12
2022-12-29T14:35:17.000Z,9.78
2022-12-29T14:37:44.000Z,10.63
2022-12-29T14:40:13.000Z,10.23
2022-12-29T14:42:36.000Z,14.15
2022-12-29T14:45:03.000Z,14
2022-12-29T14:47:29.000Z,13.43
2022-12-29T14:49:54.000Z,12.82
2022-12-29T14:52:20.000Z,15.83
2022-12-29T14:54:47.000Z,12.2
2022-12-29T14:57:14.000Z,12
2022-12-29T14:59:49.000Z,14.13
2022-12-29T15:02:11.000Z,12.6
2022-12-29T15:04:35.000Z,12.17
2022-12-29T15:06:57.000Z,13.6
2022-12-29T15:09:25.000Z,12.4
2022-12-29T15:11:52.000Z,13.2
2022-12-29T15:14:17.000Z,12.33
2022-12-29T15:16:43.000Z,12.47
2022-12-29T15:19:09.000Z,10.23
2022-12-29T15:21:40.000Z,11.48
2022-12-29T15:24:01.000Z,9.83
2022-12-29T15:26:28.000Z,11.97
2022-12-29T15:28:54.000Z,13.8
2022-12-29T15:31:21.000Z,15.3
2022-12-29T15:33:45.000Z,15.78
2022-12-29T15:36:11.000Z,13.25
2022-12-29T15:38:37.000Z,13.32
2022-12-29T15:41:04.000Z,10.82
2022-12-29T15:43:29.000Z,9.9
2022-12-29T15:45:59.000Z,11.88
2022-12-29T15:48:20.000Z,11.12
2022-12-29T15:50:47.000Z,11.22
2022-12-29T15:53:13.000Z,11.1
2022-12-29T15:55:38.000Z,9.63
2022-12-29T15:58:05.000Z,10.3
2022-12-29T16:00:46.000Z,9.97
2022-12-29T16:03:35.000Z,10.18
2022-12-29T16:05:22.000Z,12.15
2022-12-29T16:07:47.000Z,10.1
2022-12-29T16:10:16.000Z,10.37
2022-12-29T16:12:40.000Z,8.93
2022-12-29T16:15:05.000Z,7.85
2022-12-29T16:17:31.000Z,6.17
2022-12-29T16:19:57.000Z,9.05
2022-12-29T16:22:24.000Z,7.37
2022-12-29T16:24:47.000Z,7.17
2022-12-29T16:27:13.000Z,7
2022-12-29T16:29:39.000Z,5.97
2022-12-29T16:32:05.000Z,8.2
2022-12-29T16:34:31.000Z,5.92
2022-12-29T16:36:56.000Z,5.15
2022-12-29T16:39:21.000Z,5.3
2022-12-29T16:41:48.000Z,7.2
2022-12-29T16:44:14.000Z,7.58
2022-12-29T16:46:39.000Z,5.47
2022-12-29T16:49:05.000Z,4.97
2022-12-29T16:51:31.000Z,7.67
2022-12-29T16:53:56.000Z,5.7
2022-12-29T16:56:22.000Z,4.05
2022-12-29T16:58:48.000Z,4.83
2022-12-29T17:01:16.000Z,5.63
2022-12-29T17:03:39.000Z,4.5
2022-12-29T17:06:05.000Z,4.4
2022-12-29T17:08:31.000Z,3.9
2022-12-29T17:10:57.000Z,5.5
2022-12-29T17:13:22.000Z,4.07
2022-12-29T17:15:49.000Z,4.97
2022-12-29T17:18:14.000Z,5.72
2022-12-29T17:20:39.000Z,4.65
2022-12-29T17:23:06.000Z,6.13
2022-12-29T17:25:30.000Z,4.83
2022-12-29T17:27:56.000Z,3.62
2022-12-29T17:30:22.000Z,5.78
2022-12-29T17:32:49.000Z,4.4
2022-12-29T17:35:13.000Z,4.03
2022-12-29T17:37:39.000Z,6
2022-12-29T17:40:06.000Z,6.4
2022-12-29T17:42:31.000Z,6.1
2022-12-29T17:44:58.000Z,4.5
2022-12-29T17:47:23.000Z,4.97
2022-12-29T17:49:49.000Z,5.97
2022-12-29T17:52:15.000Z,7.57
2022-12-29T17:54:40.000Z,6.78
2022-12-29T17:57:08.000Z,7
2022-12-29T17:59:41.000Z,3.95
2022-12-29T18:01:57.000Z,3.07
2022-12-29T18:04:22.000Z,5.07
2022-12-29T18:06:49.000Z,5.4
2022-12-29T18:09:14.000Z,4.3
2022-12-29T18:11:40.000Z,5.12
2022-12-29T18:14:08.000Z,4.55
2022-12-29T18:16:32.000Z,4.83
2022-12-29T18:18:59.000Z,5.77
2022-12-29T18:21:24.000Z,4.3
2022-12-29T18:23:50.000Z,5.15
2022-12-29T18:26:15.000Z,5.42
2022-12-29T18:28:40.000Z,5.37
2022-12-29T18:31:06.000Z,4.5
2022-12-29T18:33:31.000Z,4.7
2022-12-29T18:35:57.000Z,4.28
2022-12-29T18:38:24.000Z,5.67
2022-12-29T18:40:55.000Z,5.75
2022-12-29T18:43:15.000Z,4.4
2022-12-29T18:45:41.000Z,5.7
2022-12-29T18:48:06.000Z,5.28
2022-12-29T18:50:35.000Z,4.85
2022-12-29T18:52:58.000Z,5.92
2022-12-29T18:55:23.000Z,4.22
2022-12-29T18:57:48.000Z,5.47
2022-12-29T19:00:27.000Z,4.5
2022-12-29T19:02:40.000Z,4.15
2022-12-29T19:05:06.000Z,4.87
2022-12-29T19:07:33.000Z,4.55
2022-12-29T19:09:57.000Z,4.55
2022-12-29T19:12:24.000Z,4.57
2022-12-29T19:14:49.000Z,3.5
2022-12-29T19:17:16.000Z,6.2
2022-12-29T19:19:41.000Z,3.33
2022-12-29T19:22:06.000Z,5.55
2022-12-29T19:24:33.000Z,4.67
2022-12-29T19:27:00.000Z,3.45
2022-12-29T19:29:24.000Z,6.33
2022-12-29T19:31:51.000Z,4.55
2022-12-29T19:34:17.000Z,3.27
2022-12-29T19:36:42.000Z,3.65
2022-12-29T19:39:10.000Z,3.47
2022-12-29T19:41:33.000Z,4
2022-12-29T19:44:00.000Z,3.4
2022-12-29T19:46:25.000Z,3.87
2022-12-29T19:48:51.000Z,4.33
2022-12-29T19:51:25.000Z,3.05
2022-12-29T19:53:43.000Z,3.55
2022-12-29T19:56:08.000Z,2.25
2022-12-29T19:58:34.000Z,3.15
2022-12-29T20:01:00.000Z,3.77
2022-12-29T20:03:26.000Z,2.9
2022-12-29T20:05:51.000Z,2.22
2022-12-29T20:08:17.000Z,2.85
2022-12-29T20:10:43.000Z,3.05
2022-12-29T20:13:09.000Z,2.75
2022-12-29T20:15:34.000Z,2.2
2022-12-29T20:18:00.000Z,3.9
2022-12-29T20:20:26.000Z,2.52
2022-12-29T20:22:52.000Z,3.67
2022-12-29T20:25:17.000Z,2.75
2022-12-29T20:27:44.000Z,3.9
2022-12-29T20:30:12.000Z,3.1
2022-12-29T20:32:35.000Z,2.7
2022-12-29T20:35:00.000Z,2.95
2022-12-29T20:37:27.000Z,2.67
2022-12-29T20:39:53.000Z,2
2022-12-29T20:42:18.000Z,2.4
2022-12-29T20:44:43.000Z,3.57
2022-12-29T20:47:09.000Z,2.57
2022-12-29T20:49:36.000Z,3.65
2022-12-29T20:52:01.000Z,3.2
2022-12-29T20:54:26.000Z,4.08
2022-12-29T20:56:53.000Z,2.87
2022-12-29T20:59:22.000Z,4.4
2022-12-29T21:01:51.000Z,4.57
2022-12-29T21:04:09.000Z,3.47
2022-12-29T21:06:35.000Z,5.03
2022-12-29T21:09:00.000Z,2.55
2022-12-29T21:11:27.000Z,3.6
2022-12-29T21:13:53.000Z,2.3
2022-12-29T21:16:20.000Z,2.5
2022-12-29T21:18:44.000Z,2.97
2022-12-29T21:21:14.000Z,3.27
2022-12-29T21:23:37.000Z,3.05
2022-12-29T21:26:02.000Z,2.2
2022-12-29T21:28:27.000Z,1.7
2022-12-29T21:30:58.000Z,5.15
2022-12-29T21:33:19.000Z,2.2
2022-12-29T21:35:45.000Z,2.55
2022-12-29T21:38:11.000Z,1.3
2022-12-29T21:40:36.000Z,1.7
2022-12-29T21:43:02.000Z,1.93
2022-12-29T21:45:28.000Z,2.9
2022-12-29T21:47:53.000Z,2.2
2022-12-29T21:50:19.000Z,1.4
2022-12-29T21:52:45.000Z,1.8
2022-12-29T21:55:12.000Z,1.3
2022-12-29T21:57:37.000Z,1.4
2022-12-29T22:00:02.000Z,2.65
2022-12-29T22:02:28.000Z,1.73
2022-12-29T22:04:54.000Z,2.3
2022-12-29T22:07:20.000Z,1.77
2022-12-29T22:09:45.000Z,4.8
2022-12-29T22:12:11.000Z,2.63
2022-12-29T22:14:37.000Z,4.9
2022-12-29T22:17:03.000Z,4.53
2022-12-29T22:19:28.000Z,2.2
2022-12-29T22:21:54.000Z,3
2022-12-29T22:24:20.000Z,1.5
2022-12-29T22:26:45.000Z,2.87
2022-12-29T22:29:11.000Z,3.2
2022-12-29T22:31:37.000Z,1.8
2022-12-29T22:34:03.000Z,2
2022-12-29T22:36:28.000Z,1.6
2022-12-29T22:38:54.000Z,2
2022-12-29T22:41:20.000Z,2.25
2022-12-29T22:43:45.000Z,3.97
2022-12-29T22:48:41.000Z,1.75
2022-12-29T22:51:06.000Z,-1
2022-12-29T22:53:32.000Z,2
2022-12-29T22:55:57.000Z,1.9
2022-12-29T22:58:24.000Z,3.2
2022-12-29T23:01:00.000Z,2.9
2022-12-29T23:03:17.000Z,2.3
2022-12-29T23:05:42.000Z,2.6
2022-12-29T23:08:10.000Z,3.8
2022-12-29T23:10:33.000Z,4.6
2022-12-29T23:12:58.000Z,-1
2022-12-29T23:15:24.000Z,4.9
2022-12-29T23:17:49.000Z,2.9
2022-12-29T23:20:15.000Z,3.7
2022-12-29T23:22:41.000Z,3.53
2022-12-29T23:25:07.000Z,3.75
2022-12-29T23:27:50.000Z,4.3
2022-12-29T23:29:58.000Z,3.75
2022-12-29T23:32:24.000Z,5.8
2022-12-29T23:34:51.000Z,5.2
2022-12-29T23:37:15.000Z,4.45
2022-12-29T23:39:41.000Z,2.6
2022-12-29T23:42:09.000Z,3.55
2022-12-29T23:44:32.000Z,4
2022-12-29T23:46:58.000Z,5.2
2022-12-29T23:49:24.000Z,4.35
2022-12-29T23:51:49.000Z,2.7
2022-12-29T23:54:14.000Z,3.85
2022-12-29T23:56:40.000Z,3.6
2022-12-29T23:59:08.000Z,2.8
